Time;durP1;ratioP1;P1;durP2;ratioP2;P2;SDS_P1;SDS_P2;PMS_P1;PMS_P2;Temp;Humidity;BMP_temperature;BMP_pressure;BME280_temperature;BME280_humidity;BME280_pressure;Samples;Min_cycle;Max_cycle;Signal;HPM_P1;HPM_P2
2021/03/20 00:01:31;;;;;;;24.47;13.50;;;;;;;1.41;100.00;101001.55;1840204;78;21056;-54
2021/03/20 00:03:58;;;;;;;28.05;13.15;;;;;;;1.36;100.00;100998.86;1840646;78;21102;-55
2021/03/20 00:06:36;;;;;;;20.70;12.45;;;;;;;1.32;100.00;100993.53;1840279;78;21371;-55
2021/03/20 00:09:10;;;;;;;19.00;11.85;;;;;;;1.26;100.00;100989.11;1840246;78;20891;-55
2021/03/20 00:11:39;;;;;;;19.52;11.95;;;;;;;1.22;100.00;100983.36;1840539;78;21541;-54
2021/03/20 00:14:06;;;;;;;19.80;12.45;;;;;;;1.17;100.00;100974.50;1840216;78;21028;-54
2021/03/20 00:16:34;;;;;;;20.70;12.03;;;;;;;1.11;100.00;100968.30;1810431;78;21032;-54
2021/03/20 00:19:01;;;;;;;18.48;11.38;;;;;;;1.06;100.00;100975.31;1840361;78;22273;-54
2021/03/20 00:21:30;;;;;;;19.32;11.65;;;;;;;1.02;100.00;100976.17;1840405;78;21053;-54
2021/03/20 00:23:57;;;;;;;18.90;11.43;;;;;;;0.98;100.00;100975.67;1840264;78;21131;-55
2021/03/20 00:26:25;;;;;;;18.40;10.18;;;;;;;0.93;100.00;100968.16;1840327;78;20966;-56
2021/03/20 00:28:53;;;;;;;17.57;10.50;;;;;;;0.90;100.00;100965.49;1840281;78;21112;-55
2021/03/20 00:31:20;;;;;;;16.52;9.98;;;;;;;0.84;100.00;100961.94;1840275;78;21357;-55
2021/03/20 00:33:48;;;;;;;19.32;10.32;;;;;;;0.81;100.00;100957.95;1840168;78;20989;-55
2021/03/20 00:36:16;;;;;;;16.35;10.43;;;;;;;0.78;100.00;100961.89;1840374;78;20958;-55
2021/03/20 00:38:46;;;;;;;16.55;10.15;;;;;;;0.73;100.00;100967.99;1836456;78;20943;-54
2021/03/20 00:41:13;;;;;;;19.67;10.75;;;;;;;0.71;100.00;100973.25;1840147;77;21076;-55
2021/03/20 00:43:41;;;;;;;16.87;9.80;;;;;;;0.65;100.00;100966.59;1839525;78;21336;-55
2021/03/20 00:46:10;;;;;;;15.18;9.63;;;;;;;0.60;100.00;100961.72;1824082;78;20992;-55
2021/03/20 00:48:40;;;;;;;17.20;9.90;;;;;;;0.56;100.00;100966.07;1824248;78;21557;-55
2021/03/20 00:51:08;;;;;;;17.05;10.65;;;;;;;0.53;100.00;100961.64;1824233;78;21557;-55
2021/03/20 00:53:35;;;;;;;17.35;10.00;;;;;;;0.50;100.00;100961.61;1824271;78;21047;-55
2021/03/20 00:56:04;;;;;;;15.95;9.38;;;;;;;0.47;100.00;100968.18;1824152;78;21367;-55
2021/03/20 00:58:38;;;;;;;15.68;9.53;;;;;;;0.45;100.00;100964.65;1824231;78;21059;-55
2021/03/20 01:01:18;;;;;;;14.15;8.75;;;;;;;0.42;100.00;100968.58;1824381;78;21114;-56
2021/03/20 01:03:48;;;;;;;17.92;9.18;;;;;;;0.37;100.00;100970.28;1824187;78;21582;-55
2021/03/20 01:06:22;;;;;;;16.42;8.93;;;;;;;0.35;100.00;100968.07;1824268;78;21035;-55
2021/03/20 01:08:52;;;;;;;15.32;9.30;;;;;;;0.32;100.00;100975.92;1824098;78;21371;-55
2021/03/20 01:11:21;;;;;;;15.50;9.13;;;;;;;0.28;100.00;100975.89;1824207;77;21098;-55
2021/03/20 01:13:49;;;;;;;15.60;9.48;;;;;;;0.27;100.00;100970.17;1824123;78;21129;-55
2021/03/20 01:16:16;;;;;;;14.80;8.83;;;;;;;0.27;100.00;100975.44;1824244;78;21512;-55
2021/03/20 01:18:44;;;;;;;13.18;8.33;;;;;;;0.24;100.00;100970.59;1824156;78;21043;-55
2021/03/20 01:21:12;;;;;;;14.70;8.05;;;;;;;0.22;100.00;100974.52;1824205;78;21374;-55
2021/03/20 01:23:41;;;;;;;12.95;7.85;;;;;;;0.20;100.00;100977.57;1824140;78;21047;-55
2021/03/20 01:26:10;;;;;;;13.95;7.87;;;;;;;0.18;100.00;100983.27;1824229;78;21075;-55
2021/03/20 01:28:40;;;;;;;12.23;7.45;;;;;;;0.17;100.00;100981.50;1824267;77;21110;-55
2021/03/20 01:31:09;;;;;;;16.00;8.23;;;;;;;0.16;100.00;100977.52;1824525;78;21578;-55
2021/03/20 01:33:36;;;;;;;14.35;8.53;;;;;;;0.13;100.00;100977.93;1824410;78;21201;-55
2021/03/20 01:36:07;;;;;;;17.07;8.53;;;;;;;0.12;100.00;100983.20;1824284;78;21003;-55
2021/03/20 01:38:35;;;;;;;13.08;8.05;;;;;;;0.10;100.00;100989.77;1824373;78;21058;-55
2021/03/20 01:41:12;;;;;;;10.82;6.92;;;;;;;0.09;100.00;100990.63;1824299;78;21055;-55
2021/03/20 01:43:41;;;;;;;12.70;7.28;;;;;;;0.08;100.00;100987.96;1805983;78;21031;-55
2021/03/20 01:46:47;;;;;;;13.45;7.53;;;;;;;0.08;100.00;100989.28;1840360;77;21534;-55
2021/03/20 01:49:44;;;;;;;12.37;7.70;;;;;;;0.07;100.00;100995.00;1840367;78;21048;-55
2021/03/20 01:52:26;;;;;;;;;;;;;;;0.05;100.00;100991.88;1842926;77;21552;-55
2021/03/20 01:55:12;;;;;;;10.55;6.92;;;;;;;0.03;100.00;100988.34;1840391;77;20230;-54
2021/03/20 01:57:44;;;;;;;12.55;7.35;;;;;;;0.01;100.00;100998.89;1840220;77;21151;-55
2021/03/20 02:00:22;;;;;;;14.60;6.47;;;;;;;-0.01;100.00;100990.05;1840480;78;22473;-54
2021/03/20 02:02:50;;;;;;;11.30;6.70;;;;;;;0.01;100.00;100995.36;1840299;78;21096;-55
2021/03/20 02:05:22;;;;;;;10.28;6.85;;;;;;;0.02;100.00;100995.80;1840387;78;21104;-55
2021/03/20 02:07:49;;;;;;;12.10;6.53;;;;;;;0.01;100.00;100995.36;1840407;78;20974;-55
2021/03/20 02:10:18;;;;;;;13.90;7.20;;;;;;;-0.01;100.00;100993.59;1840435;78;21159;-55
2021/03/20 02:12:47;;;;;;;11.70;6.10;;;;;;;-0.02;100.00;100998.41;1840360;78;22782;-55
2021/03/20 02:15:31;;;;;;;13.35;6.37;;;;;;;-0.01;100.00;100998.86;1840406;78;21172;-54
2021/03/20 02:18:17;;;;;;;12.83;6.77;;;;;;;-0.02;100.00;100994.45;1840587;78;21135;-55
2021/03/20 02:21:10;;;;;;;11.15;6.40;;;;;;;-0.02;100.00;101002.36;1840394;78;21017;-54
2021/03/20 02:24:22;;;;;;;11.30;7.20;;;;;;;-0.03;100.00;101007.19;1840524;78;21168;-54
2021/03/20 02:27:29;;;;;;;14.90;6.92;;;;;;;-0.06;100.00;101005.83;1838429;78;21702;-56
2021/03/20 02:30:54;;;;;;;13.83;6.90;;;;;;;-0.11;100.00;101010.16;1840412;78;21203;-54
2021/03/20 02:33:34;;;;;;;12.82;6.62;;;;;;;-0.14;100.00;101012.73;1840528;78;21199;-55
2021/03/20 02:36:29;;;;;;;12.43;6.47;;;;;;;-0.14;100.00;101021.95;1788058;78;21049;-54
2021/03/20 02:39:05;;;;;;;12.00;7.05;;;;;;;-0.13;100.00;101025.05;1840403;78;21131;-55
2021/03/20 02:41:59;;;;;;;11.03;6.70;;;;;;;-0.09;100.00;101021.61;1873189;76;22147;-55
2021/03/20 02:44:44;;;;;;;14.68;7.22;;;;;;;-0.12;100.00;101027.27;1779974;79;20993;-55
2021/03/20 02:47:12;;;;;;;11.18;6.78;;;;;;;-0.12;100.00;101029.45;1808382;78;21357;-55
2021/03/20 02:50:06;;;;;;;10.53;5.92;;;;;;;-0.13;100.00;101035.59;1807949;79;20934;-55
2021/03/20 02:52:39;;;;;;;15.58;6.90;;;;;;;-0.13;100.00;101035.59;1808044;79;20993;-55
2021/03/20 02:55:27;;;;;;;12.25;6.05;;;;;;;-0.12;100.00;101037.81;1808078;79;21009;-55
2021/03/20 02:58:10;;;;;;;13.53;6.42;;;;;;;-0.11;100.00;101032.98;1807732;79;20950;-55
2021/03/20 03:00:52;;;;;;;10.50;6.62;;;;;;;-0.13;100.00;101038.22;1808180;79;21369;-55
2021/03/20 03:03:23;;;;;;;11.05;6.20;;;;;;;-0.17;100.00;101032.05;1808003;79;20938;-55
2021/03/20 03:06:00;;;;;;;14.58;6.22;;;;;;;-0.18;100.00;101032.02;1808032;79;21021;-55
2021/03/20 03:08:29;;;;;;;;;;;;;;;-0.18;100.00;101032.02;1810739;79;21152;-55
2021/03/20 03:11:04;;;;;;;12.90;6.65;;;;;;;-0.18;100.00;101034.65;1808052;78;20245;-56
2021/03/20 03:13:37;;;;;;;11.97;6.73;;;;;;;-0.21;100.00;101029.34;1808380;79;22222;-55
2021/03/20 03:16:16;;;;;;;12.07;6.80;;;;;;;-0.20;100.00;101033.74;1807875;79;21139;-55
2021/03/20 03:18:47;;;;;;;14.07;6.97;;;;;;;-0.21;100.00;101032.88;1806708;79;21119;-55
2021/03/20 03:21:15;;;;;;;13.18;7.55;;;;;;;-0.20;100.00;101033.74;1807926;79;21025;-55
2021/03/20 03:23:42;;;;;;;13.55;6.78;;;;;;;-0.19;100.00;101032.88;1808022;79;21143;-55
2021/03/20 03:26:19;;;;;;;12.45;7.42;;;;;;;-0.22;100.00;101036.38;1808030;79;21188;-54
2021/03/20 03:28:49;;;;;;;12.50;7.30;;;;;;;-0.22;100.00;101036.80;1807267;79;21012;-55
2021/03/20 03:31:25;;;;;;;15.55;8.48;;;;;;;-0.24;100.00;101037.20;1808062;79;21048;-56
2021/03/20 03:34:04;;;;;;;13.93;8.10;;;;;;;-0.24;100.00;101037.20;1807988;79;21116;-54
2021/03/20 03:36:37;;;;;;;15.10;8.60;;;;;;;-0.24;100.00;101042.48;1808071;79;20926;-54
2021/03/20 03:39:16;;;;;;;12.13;7.90;;;;;;;-0.25;100.00;101043.34;1807925;78;21362;-56
2021/03/20 03:41:44;;;;;;;17.23;8.75;;;;;;;-0.27;100.00;101034.53;1812996;79;21116;-56
2021/03/20 03:44:12;;;;;;;16.02;8.95;;;;;;;-0.28;100.00;101039.34;1818193;78;21012;-55
2021/03/20 03:46:43;;;;;;;16.42;9.15;;;;;;;-0.32;100.00;101039.31;1831095;78;20979;-55
2021/03/20 03:49:14;;;;;;;15.05;9.13;;;;;;;-0.33;100.00;101049.39;1830966;78;21453;-55
2021/03/20 03:51:41;;;;;;;17.07;9.90;;;;;;;-0.33;100.00;101050.72;1830797;78;21188;-55
2021/03/20 03:54:09;;;;;;;20.77;9.63;;;;;;;-0.35;100.00;101053.73;1830400;78;20916;-56
2021/03/20 03:57:04;;;;;;;17.60;9.03;;;;;;;-0.36;100.00;101048.00;1830398;78;20992;-55
2021/03/20 04:00:14;;;;;;;16.25;8.98;;;;;;;-0.36;100.00;101048.00;1830693;78;21065;-55
2021/03/20 04:03:10;;;;;;;15.50;8.83;;;;;;;-0.37;100.00;101045.37;1830479;78;21007;-55
2021/03/20 04:05:43;;;;;;;18.20;9.75;;;;;;;-0.37;100.00;101055.45;1830412;78;21197;-56
2021/03/20 04:08:38;;;;;;;18.75;9.55;;;;;;;-0.37;100.00;101056.78;1830384;78;20932;-55
2021/03/20 04:11:17;;;;;;;18.20;10.68;;;;;;;-0.37;100.00;101062.05;1812593;77;21181;-55
2021/03/20 04:14:02;;;;;;;19.82;9.98;;;;;;;-0.34;100.00;101064.72;1830458;77;21090;-55
2021/03/20 04:16:38;;;;;;;16.97;10.48;;;;;;;-0.30;100.00;101067.88;1830425;78;20900;-55
2021/03/20 04:19:34;;;;;;;17.27;9.85;;;;;;;-0.24;100.00;101075.42;1830538;77;22216;-54
2021/03/20 04:22:29;;;;;;;;;;;;;;;-0.18;100.00;101074.18;1833107;78;21059;-54
2021/03/20 04:25:37;;;;;;;17.27;9.80;;;;;;;-0.14;100.00;101074.67;1798621;77;20238;-55
2021/03/20 04:28:22;;;;;;;17.87;9.55;;;;;;;-0.09;100.00;101076.97;1830468;78;20928;-55
2021/03/20 04:30:52;;;;;;;20.30;9.48;;;;;;;-0.02;100.00;101084.09;1830432;78;21027;-56
2021/03/20 04:33:24;;;;;;;16.80;9.68;;;;;;;0.07;100.00;101078.47;1830376;78;22328;-56
2021/03/20 04:35:59;;;;;;;16.40;9.43;;;;;;;0.17;100.00;101097.95;1830358;78;20940;-55
2021/03/20 04:38:26;;;;;;;15.60;8.55;;;;;;;0.23;100.00;101093.64;1814348;78;21154;-55
2021/03/20 04:41:01;;;;;;;16.30;8.58;;;;;;;0.32;100.00;101094.63;1830373;78;20992;-55
2021/03/20 04:43:30;;;;;;;16.17;8.57;;;;;;;0.40;100.00;101092.98;1830920;77;21459;-56
2021/03/20 04:46:15;;;;;;;14.35;8.10;;;;;;;0.48;100.00;101103.19;1849120;77;21200;-55
2021/03/20 04:48:51;;;;;;;13.80;8.10;;;;;;;0.52;100.00;101099.71;1849182;77;20989;-55
2021/03/20 04:51:30;;;;;;;12.53;7.83;;;;;;;0.61;99.94;101104.67;1848127;77;21072;-55
2021/03/20 04:54:18;;;;;;;16.52;7.97;;;;;;;0.69;99.14;101114.45;1849187;77;21067;-56
2021/03/20 04:56:55;;;;;;;13.65;7.83;;;;;;;0.82;98.36;101118.11;1849176;77;21115;-55
2021/03/20 04:59:39;;;;;;;11.35;6.67;;;;;;;0.94;97.18;101113.40;1849380;77;21369;-55
2021/03/20 05:02:19;;;;;;;13.98;7.15;;;;;;;1.06;96.01;101114.38;1849219;77;21166;-54
2021/03/20 05:04:47;;;;;;;12.82;7.10;;;;;;;1.18;94.92;101117.16;1848062;77;21013;-56
2021/03/20 05:07:14;;;;;;;14.80;7.53;;;;;;;1.32;94.05;101119.92;1823778;77;21084;-56
2021/03/20 05:09:42;;;;;;;13.85;7.80;;;;;;;1.45;92.76;101133.27;1849175;77;21032;-55
2021/03/20 05:12:26;;;;;;;13.35;7.33;;;;;;;1.57;91.66;101141.28;1848392;77;21426;-55
2021/03/20 05:15:03;;;;;;;13.85;8.03;;;;;;;1.66;90.97;101136.09;1848529;77;21139;-56
2021/03/20 05:17:32;;;;;;;15.38;7.55;;;;;;;1.81;89.72;101134.41;1833706;77;21064;-56
2021/03/20 05:20:00;;;;;;;13.13;7.50;;;;;;;2.10;88.78;101145.63;1849113;77;21056;-55
2021/03/20 05:22:31;;;;;;;13.35;7.62;;;;;;;2.40;86.81;101148.89;1849266;77;21457;-55
2021/03/20 05:25:00;;;;;;;13.35;7.42;;;;;;;2.78;85.45;101150.38;1849326;77;22119;-56
2021/03/20 05:27:31;;;;;;;11.25;6.87;;;;;;;2.99;83.22;101156.21;1849092;77;20934;-55
2021/03/20 05:29:58;;;;;;;12.63;7.42;;;;;;;2.96;81.53;101151.77;1849150;77;20954;-55
2021/03/20 05:32:29;;;;;;;14.10;6.90;;;;;;;2.88;81.44;101152.63;1849165;77;20934;-55
2021/03/20 05:34:59;;;;;;;13.10;7.40;;;;;;;2.83;81.33;101154.83;1849247;77;21484;-55
2021/03/20 05:37:30;;;;;;;15.13;7.87;;;;;;;2.82;81.07;101159.68;1849214;77;21552;-55
2021/03/20 05:39:58;;;;;;;12.28;7.08;;;;;;;2.80;81.39;101160.55;1849125;77;21072;-55
2021/03/20 05:42:45;;;;;;;12.15;6.47;;;;;;;2.83;81.09;101158.80;1841130;77;21112;-56
2021/03/20 05:45:30;;;;;;;12.70;6.62;;;;;;;2.84;80.46;101154.38;1831666;78;21019;-55
2021/03/20 05:48:08;;;;;;;12.37;6.37;;;;;;;2.88;80.16;101154.85;1827507;78;21099;-55
2021/03/20 05:51:08;;;;;;;13.62;6.70;;;;;;;2.96;79.71;101161.47;1827414;78;21674;-56
2021/03/20 05:53:59;;;;;;;9.75;6.17;;;;;;;3.07;79.22;101168.13;1827407;78;21122;-55
2021/03/20 05:57:03;;;;;;;13.03;6.50;;;;;;;3.06;78.73;101174.30;1827513;78;21437;-55
2021/03/20 05:59:56;;;;;;;11.63;6.35;;;;;;;3.03;78.44;101179.17;1827424;78;21031;-57
2021/03/20 06:02:53;;;;;;;14.10;6.22;;;;;;;3.03;78.23;101178.28;1827580;78;21472;-55
2021/03/20 06:05:57;;;;;;;16.23;7.10;;;;;;;3.02;78.08;101193.30;1749508;77;21666;-56
2021/03/20 06:08:47;;;;;;;10.23;6.05;;;;;;;3.07;78.16;101194.20;1827337;78;20995;-56
2021/03/20 06:11:55;;;;;;;10.38;5.72;;;;;;;3.18;78.46;101197.30;1827523;78;20972;-56
2021/03/20 06:14:51;;;;;;;13.70;6.00;;;;;;;3.29;77.43;101203.53;1827462;78;21121;-56
2021/03/20 06:17:53;;;;;;;11.08;6.10;;;;;;;3.28;76.85;101211.04;1789690;78;21039;-55
2021/03/20 06:20:36;;;;;;;12.93;6.45;;;;;;;3.30;76.27;101210.14;1827480;78;21348;-55
2021/03/20 06:23:29;;;;;;;10.78;6.03;;;;;;;3.29;75.94;101212.81;1827359;78;20999;-56
2021/03/20 06:26:06;;;;;;;12.73;6.15;;;;;;;3.32;76.21;101202.67;1827405;78;20963;-56
2021/03/20 06:28:39;;;;;;;9.95;5.87;;;;;;;3.31;75.92;101203.09;1827399;78;21130;-55
2021/03/20 06:31:24;;;;;;;11.38;5.60;;;;;;;3.34;75.62;101216.34;1827415;78;21142;-56
2021/03/20 06:34:14;;;;;;;12.93;6.35;;;;;;;3.34;75.11;101208.39;1825256;78;21454;-56
2021/03/20 06:36:58;;;;;;;9.33;5.45;;;;;;;3.32;75.24;101214.14;1827344;78;21161;-57
2021/03/20 06:40:05;;;;;;;12.33;6.15;;;;;;;3.26;75.35;101204.86;1826961;78;21109;-56
2021/03/20 06:42:36;;;;;;;10.63;6.40;;;;;;;3.33;76.26;101219.87;1829879;78;21156;-55
2021/03/20 06:45:09;;;;;;;10.45;6.03;;;;;;;3.48;76.30;101215.50;1832295;78;21521;-56
2021/03/20 06:47:40;;;;;;;12.50;5.72;;;;;;;3.61;75.52;101208.00;1833376;78;22246;-57
2021/03/20 06:50:20;;;;;;;12.33;5.60;;;;;;;3.68;74.34;101215.52;1833085;78;20924;-56
2021/03/20 06:52:57;;;;;;;10.60;5.60;;;;;;;3.71;74.19;101223.05;1833343;78;21322;-57
2021/03/20 06:55:41;;;;;;;13.05;6.03;;;;;;;3.79;74.46;101211.12;1832367;77;21007;-56
2021/03/20 06:58:34;;;;;;;12.13;6.17;;;;;;;4.03;74.09;101219.07;1889579;76;22025;-56
2021/03/20 07:01:22;;;;;;;9.15;5.97;;;;;;;4.09;73.56;101212.42;1860479;77;20980;-56
2021/03/20 07:04:18;;;;;;;9.80;5.60;;;;;;;4.23;72.20;101218.61;1860442;77;21648;-56
2021/03/20 07:07:18;;;;;;;10.82;5.25;;;;;;;4.23;71.17;101220.41;1860522;77;21083;-56
2021/03/20 07:09:51;;;;;;;10.80;6.00;;;;;;;4.23;71.37;101215.09;1860492;77;21133;-56
2021/03/20 07:12:24;;;;;;;9.23;5.15;;;;;;;4.25;71.47;101222.15;1860372;77;21175;-56
2021/03/20 07:14:58;;;;;;;9.50;5.58;;;;;;;4.28;71.50;101223.92;1860534;77;20905;-57
2021/03/20 07:17:36;;;;;;;8.78;5.05;;;;;;;4.23;70.09;101234.55;1860336;77;21350;-55
2021/03/20 07:20:15;;;;;;;10.23;6.30;;;;;;;4.17;69.68;101233.23;1860390;77;20929;-58
2021/03/20 07:22:49;;;;;;;9.40;5.80;;;;;;;4.43;69.52;101241.60;1860466;77;20981;-56
2021/03/20 07:25:39;;;;;;;9.18;5.12;;;;;;;4.82;69.59;101231.77;1856103;77;21070;-56
2021/03/20 07:28:16;;;;;;;10.13;5.55;;;;;;;5.06;68.57;101231.66;1828686;77;21143;-56
2021/03/20 07:31:06;;;;;;;15.43;6.22;;;;;;;4.96;67.94;101237.46;1860520;77;21440;-56
2021/03/20 07:33:47;;;;;;;12.73;6.12;;;;;;;4.85;68.52;101238.40;1860381;77;21059;-56
2021/03/20 07:36:37;;;;;;;12.00;6.60;;;;;;;4.68;69.23;101241.55;1860326;77;20949;-56
2021/03/20 07:39:21;;;;;;;11.97;6.72;;;;;;;4.60;70.78;101242.89;1860346;77;21071;-56
2021/03/20 07:41:54;;;;;;;12.37;6.42;;;;;;;4.61;70.12;101247.31;1860560;77;21583;-56
2021/03/20 07:44:26;;;;;;;12.10;7.00;;;;;;;4.55;69.65;101239.36;1845357;77;21377;-56
2021/03/20 07:46:55;;;;;;;11.88;6.80;;;;;;;4.42;70.16;101234.09;1824920;78;21159;-56
2021/03/20 07:49:30;;;;;;;17.10;7.45;;;;;;;4.31;71.30;101238.52;1824871;78;21130;-56
2021/03/20 07:52:04;;;;;;;15.90;6.60;;;;;;;4.35;72.23;101238.09;1824928;78;20968;-57
2021/03/20 07:54:36;;;;;;;14.70;6.90;;;;;;;4.50;71.68;101239.83;1825010;78;21565;-55
2021/03/20 07:57:16;;;;;;;16.25;7.12;;;;;;;4.50;71.68;101239.83;1827092;77;21200;-57
2021/03/20 07:59:52;;;;;;;16.62;6.90;;;;;;;4.62;71.89;101246.88;1831067;77;21035;-55
2021/03/20 08:02:35;;;;;;;21.80;6.70;;;;;;;4.76;70.46;101248.17;1830981;77;21130;-56
2021/03/20 08:05:22;;;;;;;15.13;7.00;;;;;;;4.85;69.73;101260.09;1831070;78;21082;-57
2021/03/20 08:07:52;;;;;;;11.45;6.33;;;;;;;4.91;68.35;101265.83;1830858;78;20928;-56
2021/03/20 08:10:27;;;;;;;15.30;6.60;;;;;;;4.89;67.40;101255.23;1830469;77;22249;-56
2021/03/20 08:13:17;;;;;;;14.33;6.75;;;;;;;4.91;68.13;101262.75;1820075;77;21169;-56
2021/03/20 08:15:56;;;;;;;13.55;6.45;;;;;;;4.98;68.47;101262.28;1830482;78;21479;-56
2021/03/20 08:18:28;;;;;;;12.33;6.58;;;;;;;5.05;67.84;101258.70;1830452;77;20913;-56
2021/03/20 08:21:22;;;;;;;13.08;5.78;;;;;;;5.10;67.11;101272.86;1830530;78;21030;-56
2021/03/20 08:24:12;;;;;;;11.93;6.37;;;;;;;5.21;67.00;101271.95;1830419;77;21359;-55
2021/03/20 08:26:48;;;;;;;12.55;6.50;;;;;;;5.33;65.39;101265.22;1830046;77;21184;-56
2021/03/20 08:30:01;;;;;;;10.68;6.10;;;;;;;5.40;65.03;101272.27;1830444;77;20945;-56
2021/03/20 08:33:00;;;;;;;12.10;5.87;;;;;;;5.42;65.41;101274.50;1830435;77;21149;-56
2021/03/20 08:35:58;;;;;;;9.13;5.25;;;;;;;5.48;65.14;101279.34;1830473;78;21055;-57
2021/03/20 08:38:57;;;;;;;9.35;4.87;;;;;;;5.55;64.62;101274.42;1830381;77;21637;-56
2021/03/20 08:41:44;;;;;;;8.50;5.17;;;;;;;5.69;62.17;101285.88;1830385;78;20936;-55
2021/03/20 08:44:43;;;;;;;11.25;5.97;;;;;;;5.35;62.66;101279.39;1834453;77;21116;-56
2021/03/20 08:47:28;;;;;;;13.48;6.05;;;;;;;5.35;62.66;101279.39;1845877;77;21163;-56
2021/03/20 08:50:14;;;;;;;9.58;5.62;;;;;;;5.38;62.67;101282.03;1846390;77;20898;-55
2021/03/20 08:53:02;;;;;;;8.88;5.55;;;;;;;5.48;62.31;101282.88;1846401;77;21368;-55
2021/03/20 08:56:03;;;;;;;9.93;5.37;;;;;;;5.79;61.92;101285.80;1838649;77;20996;-56
2021/03/20 08:59:00;;;;;;;11.22;6.03;;;;;;;5.87;58.78;101297.30;1857422;77;21138;-55
2021/03/20 09:01:59;;;;;;;10.35;5.60;;;;;;;5.79;59.04;101291.13;1859675;77;21040;-55
2021/03/20 09:04:33;;;;;;;8.68;5.10;;;;;;;5.79;59.04;101291.13;1785617;80;21114;-57
2021/03/20 09:07:11;;;;;;;8.73;5.15;;;;;;;5.80;58.71;101292.89;1789707;80;22290;-57
2021/03/20 09:09:50;;;;;;;10.48;5.30;;;;;;;5.78;57.09;101307.55;1821906;78;21049;-56
2021/03/20 09:12:26;;;;;;;7.45;4.40;;;;;;;5.70;56.45;101290.30;1822012;78;20949;-56
2021/03/20 09:14:53;;;;;;;11.18;4.80;;;;;;;5.70;56.67;101284.98;1815331;79;22084;-57
2021/03/20 09:17:28;;;;;;;7.58;4.90;;;;;;;5.79;56.88;101287.13;1816903;79;21195;-56
2021/03/20 09:20:06;;;;;;;7.42;4.22;;;;;;;5.92;56.41;101279.52;1816741;79;21333;-56
2021/03/20 09:22:34;;;;;;;9.25;4.70;;;;;;;5.92;56.41;101279.52;1816855;79;21052;-56
2021/03/20 09:25:10;;;;;;;6.53;4.10;;;;;;;5.93;56.79;101284.37;1816830;79;21187;-56
2021/03/20 09:28:10;;;;;;;8.55;5.03;;;;;;;5.86;55.70;101284.89;1815888;79;21060;-56
2021/03/20 09:30:49;;;;;;;9.10;5.12;;;;;;;5.69;56.10;101288.53;1817005;79;21235;-56
2021/03/20 09:33:32;;;;;;;11.05;5.37;;;;;;;5.60;57.37;101279.26;1816720;79;21370;-55
2021/03/20 09:36:23;;;;;;;6.10;4.05;;;;;;;5.56;58.39;101278.84;1816748;78;21524;-56
2021/03/20 09:38:57;;;;;;;7.60;4.80;;;;;;;5.61;56.71;101274.37;1790243;79;21103;-56
2021/03/20 09:41:30;;;;;;;9.35;4.90;;;;;;;5.77;56.29;101296.91;1816335;79;21056;-56
2021/03/20 09:44:03;;;;;;;7.17;4.25;;;;;;;5.77;56.29;101296.91;1808793;79;21011;-55
2021/03/20 09:46:46;;;;;;;8.53;4.72;;;;;;;5.79;55.97;101294.69;1765077;81;21200;-56
2021/03/20 09:49:24;;;;;;;7.87;4.53;;;;;;;5.73;54.95;101296.03;1765741;81;20970;-56
2021/03/20 09:51:59;;;;;;;6.62;4.12;;;;;;;5.67;54.65;101292.98;1765579;81;21137;-56
2021/03/20 09:54:43;;;;;;;7.65;4.58;;;;;;;5.66;53.94;101303.19;1765823;81;21156;-57
2021/03/20 09:57:22;;;;;;;7.70;4.70;;;;;;;5.67;54.39;101286.33;1811261;79;21259;-55
2021/03/20 09:59:50;;;;;;;5.92;3.87;;;;;;;5.98;54.52;101292.77;1811299;79;21523;-55
2021/03/20 10:02:27;;;;;;;8.10;3.98;;;;;;;5.98;54.52;101292.77;1811328;79;21051;-56
2021/03/20 10:05:06;;;;;;;9.85;4.83;;;;;;;6.14;53.26;101296.23;1811364;79;21463;-56
2021/03/20 10:07:35;;;;;;;6.53;4.33;;;;;;;6.23;53.74;101259.33;1805580;79;21066;-55
2021/03/20 10:10:15;;;;;;;14.60;3.92;;;;;;;6.44;53.43;101291.98;1811268;79;21519;-55
2021/03/20 10:12:51;;;;;;;9.43;4.20;;;;;;;6.66;52.65;101283.79;1811269;79;21201;-56
2021/03/20 10:15:34;;;;;;;9.23;4.78;;;;;;;6.81;52.72;101287.64;1811233;79;21535;-56
2021/03/20 10:18:16;;;;;;;6.80;4.17;;;;;;;6.87;53.05;101278.70;1811220;79;20968;-55
2021/03/20 10:21:02;;;;;;;7.22;4.20;;;;;;;6.85;52.13;101270.70;1811301;79;21809;-56
2021/03/20 10:23:44;;;;;;;6.70;4.15;;;;;;;6.79;51.42;101273.88;1811318;79;21063;-57
2021/03/20 10:26:40;;;;;;;8.40;4.78;;;;;;;6.78;51.86;101274.35;1789743;79;21398;-56
2021/03/20 10:29:21;;;;;;;10.75;5.15;;;;;;;6.90;52.47;101280.42;1811244;79;21008;-56
2021/03/20 10:31:52;;;;;;;9.48;4.10;;;;;;;6.95;51.43;101270.59;1811251;79;21150;-56
2021/03/20 10:34:23;;;;;;;8.15;4.05;;;;;;;6.90;51.76;101273.77;1811504;79;21059;-56
2021/03/20 10:37:07;;;;;;;10.55;4.60;;;;;;;6.90;51.29;101270.66;1811219;79;21126;-56
2021/03/20 10:39:38;;;;;;;10.63;4.30;;;;;;;6.87;52.63;101270.70;1811469;79;21379;-57
2021/03/20 10:42:29;;;;;;;7.22;4.03;;;;;;;6.81;51.78;101276.98;1811225;79;21538;-55
2021/03/20 10:44:57;;;;;;;7.47;4.40;;;;;;;6.59;52.16;101279.87;1801066;79;21493;-56
2021/03/20 10:47:38;;;;;;;8.00;4.70;;;;;;;6.49;52.38;101271.52;1795970;79;21054;-56
2021/03/20 10:50:36;;;;;;;9.05;4.47;;;;;;;6.45;52.88;101272.45;1764220;81;20986;-56
2021/03/20 10:53:08;;;;;;;7.15;4.15;;;;;;;6.46;52.48;101270.21;1775736;80;21248;-56
2021/03/20 10:55:46;;;;;;;6.72;4.10;;;;;;;6.50;52.16;101274.61;1764064;81;20974;-56
2021/03/20 10:58:16;;;;;;;8.05;4.20;;;;;;;6.52;50.74;101277.27;1775608;80;21051;-55
2021/03/20 11:00:47;;;;;;;10.63;4.35;;;;;;;6.50;51.20;101277.27;1764230;81;21045;-57
2021/03/20 11:03:38;;;;;;;7.67;4.60;;;;;;;6.48;51.58;101271.08;1776761;80;21056;-57
2021/03/20 11:06:17;;;;;;;11.05;5.08;;;;;;;6.53;52.53;101270.61;1776933;80;21363;-57
2021/03/20 11:08:50;;;;;;;7.30;4.10;;;;;;;6.62;52.50;101276.27;1776693;80;20916;-56
2021/03/20 11:11:27;;;;;;;12.28;4.80;;;;;;;6.56;52.89;101259.92;1761195;81;21077;-56
2021/03/20 11:14:09;;;;;;;9.35;3.85;;;;;;;6.51;50.82;101272.84;1775701;80;21016;-56
2021/03/20 11:17:06;;;;;;;9.40;4.30;;;;;;;6.38;49.25;101270.28;1889540;76;23981;-56
2021/03/20 11:19:38;;;;;;;8.20;4.78;;;;;;;6.26;50.49;101283.26;1860497;77;20969;-56
2021/03/20 11:22:29;;;;;;;9.63;4.65;;;;;;;6.23;51.84;101287.75;1860467;77;21521;-55
2021/03/20 11:24:59;;;;;;;7.78;4.50;;;;;;;6.16;52.41;101271.80;1849430;77;21012;-56
2021/03/20 11:27:31;;;;;;;9.10;4.80;;;;;;;6.11;52.07;101286.94;1860367;77;20973;-56
2021/03/20 11:30:21;;;;;;;14.07;5.40;;;;;;;6.12;51.75;101283.84;1889624;76;22436;-56
2021/03/20 11:32:48;;;;;;;9.45;4.72;;;;;;;6.10;51.63;101283.84;1860576;77;21020;-56
2021/03/20 11:35:36;;;;;;;10.85;4.90;;;;;;;6.23;51.42;101276.63;1860424;77;21390;-57
2021/03/20 11:38:04;;;;;;;9.63;4.12;;;;;;;6.35;51.72;101264.13;1860422;77;20984;-57
2021/03/20 11:40:39;;;;;;;9.98;4.53;;;;;;;6.42;51.54;101277.37;1860395;77;20977;-55
2021/03/20 11:43:10;;;;;;;;;;;;;;;6.37;50.29;101283.63;1863174;77;21488;-55
2021/03/20 11:45:40;;;;;;;8.35;3.92;;;;;;;6.30;49.98;101289.02;1834376;77;20194;-56
2021/03/20 11:48:21;;;;;;;6.95;4.25;;;;;;;6.25;48.96;101282.83;1830317;78;21467;-56
2021/03/20 11:50:56;;;;;;;6.50;4.17;;;;;;;6.32;49.85;101275.67;1830143;78;20964;-59
2021/03/20 11:53:43;;;;;;;4.20;3.07;;;;;;;6.41;49.98;101264.95;1830551;77;21054;-55
2021/03/20 11:56:24;;;;;;;8.53;3.98;;;;;;;6.67;50.09;101278.89;1830221;78;21106;-56
2021/03/20 11:58:58;;;;;;;8.05;4.00;;;;;;;6.67;50.09;101278.89;1830165;78;21095;-56
2021/03/20 12:01:37;;;;;;;7.15;4.12;;;;;;;6.78;50.75;101270.35;1830239;78;21194;-55
2021/03/20 12:04:17;;;;;;;6.75;3.98;;;;;;;6.69;48.13;101279.33;1830146;77;21046;-56
2021/03/20 12:06:45;;;;;;;5.15;3.67;;;;;;;6.69;48.13;101279.33;1826128;78;21146;-56
2021/03/20 12:09:32;;;;;;;7.90;4.10;;;;;;;6.71;47.44;101264.63;1807577;78;21172;-56
2021/03/20 12:11:57;;;;;;;9.90;4.20;;;;;;;6.80;48.00;101247.23;1830189;78;20960;-56
2021/03/20 12:14:40;;;;;;;5.70;3.72;;;;;;;7.00;48.46;101262.98;1830185;78;21382;-56
2021/03/20 12:17:15;;;;;;;7.00;4.22;;;;;;;7.00;48.46;101262.98;1830068;78;21037;-56
2021/03/20 12:19:57;;;;;;;5.90;4.15;;;;;;;7.04;47.31;101261.17;1830179;78;21563;-56